Time;durP1;ratioP1;P1;durP2;ratioP2;P2;SDS_P1;SDS_P2;PMS_P1;PMS_P2;Temp;Humidity;BMP_temperature;BMP_pressure;BME280_temperature;BME280_humidity;BME280_pressure;Samples;Min_cycle;Max_cycle;Signal;HPM_P1;HPM_P2
2022/03/01 00:02:12;;;;;;;;;22.25;22.25;;;;;5.17;59.37;102672.66;5028103;28;11683;-68
2022/03/01 00:04:39;;;;;;;;;19.00;17.25;;;;;5.11;59.54;102673.09;5027948;28;11585;-68
2022/03/01 00:07:07;;;;;;;;;15.25;12.75;;;;;5.14;59.48;102680.94;5027216;28;11525;-69
2022/03/01 00:09:35;;;;;;;;;19.75;18.00;;;;;5.20;59.94;102674.25;5029359;28;11533;-68
2022/03/01 00:12:01;;;;;;;;;17.50;17.00;;;;;5.14;59.74;102680.06;5027862;28;11588;-68
2022/03/01 00:14:29;;;;;;;;;23.50;18.75;;;;;5.10;59.85;102676.75;5023492;28;11527;-69
2022/03/01 00:16:56;;;;;;;;;24.25;21.75;;;;;5.09;59.76;102679.53;5006796;28;11529;-68
2022/03/01 00:19:22;;;;;;;;;30.50;23.50;;;;;5.12;60.04;102673.97;5010057;28;12568;-68
2022/03/01 00:21:49;;;;;;;;;24.50;22.50;;;;;5.11;59.75;102678.47;5020996;28;11544;-69
2022/03/01 00:24:15;;;;;;;;;31.75;27.00;;;;;5.04;60.33;102684.38;5027307;28;11541;-68
2022/03/01 00:26:43;;;;;;;;;26.50;24.00;;;;;5.13;60.22;102687.28;5007888;28;11573;-69
2022/03/01 00:29:10;;;;;;;;;22.75;17.50;;;;;5.10;60.90;102687.50;5030034;28;12228;-69
2022/03/01 00:31:36;;;;;;;;;26.25;19.75;;;;;5.03;60.61;102688.03;5025891;28;11530;-69
2022/03/01 00:34:02;;;;;;;;;26.50;24.25;;;;;5.06;60.89;102690.50;5012389;28;11521;-68
2022/03/01 00:36:29;;;;;;;;;20.50;15.00;;;;;5.07;61.30;102687.72;5028169;28;11535;-69
2022/03/01 00:38:55;;;;;;;;;20.50;16.25;;;;;5.09;61.03;102677.72;5009680;28;11612;-69
2022/03/01 00:41:22;;;;;;;;;13.25;13.25;;;;;5.11;61.09;102691.03;5008659;28;11551;-69
2022/03/01 00:43:48;;;;;;;;;23.75;21.75;;;;;5.10;60.91;102687.50;5024654;28;11586;-70
2022/03/01 00:46:15;;;;;;;;;21.50;20.00;;;;;5.08;60.92;102689.44;5029651;28;11612;-69
2022/03/01 00:48:42;;;;;;;;;17.75;16.50;;;;;5.16;61.51;102691.56;5029751;28;11662;-69
2022/03/01 00:51:08;;;;;;;;;21.75;18.00;;;;;5.11;61.60;102691.03;5026708;28;11574;-69
2022/03/01 00:53:35;;;;;;;;;27.25;22.75;;;;;5.12;61.48;102687.38;5029321;28;11544;-69
2022/03/01 00:56:04;;;;;;;;;19.75;19.00;;;;;5.15;61.80;102690.69;5029833;28;11549;-69
2022/03/01 00:58:31;;;;;;;;;25.25;23.00;;;;;5.10;61.67;102690.16;5011761;28;11605;-69
2022/03/01 01:00:58;;;;;;;;;15.25;13.50;;;;;5.13;61.55;102691.78;5009760;28;11629;-70
2022/03/01 01:03:25;;;;;;;;;18.75;18.75;;;;;5.13;61.54;102681.91;5024870;28;11550;-71
2022/03/01 01:05:51;;;;;;;;;21.25;20.50;;;;;5.11;61.76;102678.47;5033818;28;11523;-71
2022/03/01 01:08:18;;;;;;;;;24.25;20.75;;;;;5.13;61.74;102675.66;5014975;28;11556;-70
2022/03/01 01:10:44;;;;;;;;;25.50;19.50;;;;;5.11;61.31;102667.72;5025212;28;11673;-71
2022/03/01 01:13:13;;;;;;;;;24.25;16.50;;;;;5.10;62.29;102673.22;5031266;28;11666;-70
2022/03/01 01:15:40;;;;;;;;;23.50;20.50;;;;;5.11;61.80;102677.59;5028563;28;11606;-71
2022/03/01 01:18:07;;;;;;;;;24.50;21.75;;;;;5.13;62.02;102664.94;5031426;28;11566;-71
2022/03/01 01:20:34;;;;;;;;;28.25;19.00;;;;;5.06;62.32;102667.19;5013152;28;11532;-71
2022/03/01 01:23:01;;;;;;;;;31.75;19.00;;;;;5.07;61.80;102670.75;5028985;28;11648;-71
2022/03/01 01:25:27;;;;;;;;;17.75;17.75;;;;;5.08;61.92;102669.78;5014669;28;11578;-71
2022/03/01 01:27:56;;;;;;;;;21.75;20.50;;;;;5.09;61.82;102668.81;5017876;28;11505;-71
2022/03/01 01:30:26;;;;;;;;;17.75;15.50;;;;;5.07;62.04;102668.06;5026571;28;12375;-70
2022/03/01 01:32:52;;;;;;;;;31.50;23.00;;;;;5.08;62.00;102659.91;5021687;28;11518;-71
2022/03/01 01:35:22;;;;;;;;;28.00;26.00;;;;;5.06;61.72;102667.19;5026596;28;11562;-70
2022/03/01 01:37:50;;;;;;;;;18.75;17.50;;;;;5.02;61.64;102660.34;5024304;28;11709;-70
2022/03/01 01:40:20;;;;;;;;;21.50;19.50;;;;;5.04;61.96;102661.09;5013630;28;12312;-70
2022/03/01 01:42:47;;;;;;;;;29.00;25.50;;;;;5.04;61.58;102660.22;5032775;28;11683;-71
2022/03/01 01:45:13;;;;;;;;;26.25;21.50;;;;;5.02;61.68;102664.84;5033291;28;11533;-71
2022/03/01 01:47:45;;;;;;;;;30.00;23.25;;;;;5.01;61.65;102655.06;5027361;28;11542;-71
2022/03/01 01:50:12;;;;;;;;;23.25;18.00;;;;;5.01;61.68;102665.81;5033079;28;11531;-71
2022/03/01 01:52:39;;;;;;;;;23.25;21.25;;;;;5.05;62.03;102665.47;5021483;28;11536;-71
2022/03/01 01:55:06;;;;;;;;;27.00;21.25;;;;;5.05;62.25;102668.16;5031414;28;12276;-71
2022/03/01 01:57:33;;;;;;;;;21.00;17.25;;;;;5.04;62.13;102669.13;5025140;28;12212;-71
2022/03/01 02:00:00;;;;;;;;;21.25;19.25;;;;;5.05;62.06;102651.22;5007399;28;11559;-71
2022/03/01 02:02:38;;;;;;;;;23.00;19.75;;;;;5.02;62.47;102656.78;5029969;28;11529;-71
2022/03/01 02:05:07;;;;;;;;;21.00;20.25;;;;;5.02;62.81;102654.97;5022239;28;11677;-71
2022/03/01 02:07:34;;;;;;;;;18.25;15.75;;;;;5.01;62.97;102660.44;5032689;28;11559;-71
2022/03/01 02:10:01;;;;;;;;;16.00;16.00;;;;;5.00;63.05;102658.72;5029045;28;11502;-70
2022/03/01 02:12:27;;;;;;;;;19.25;15.00;;;;;4.95;62.96;102654.53;5007409;28;11656;-70
2022/03/01 02:14:54;;;;;;;;;22.00;17.50;;;;;4.95;63.30;102650.97;5011334;28;12285;-71
2022/03/01 02:17:20;;;;;;;;;23.75;20.25;;;;;4.92;63.87;102648.50;5011230;28;11545;-71
2022/03/01 02:19:48;;;;;;;;;29.25;22.50;;;;;4.84;64.03;102651.75;5010633;28;12354;-69
2022/03/01 02:22:15;;;;;;;;;21.25;18.75;;;;;4.83;64.05;102650.03;5017386;28;11579;-70
2022/03/01 02:24:41;;;;;;;;;33.50;24.25;;;;;4.84;64.30;102654.44;5007547;28;11544;-71
2022/03/01 02:27:08;;;;;;;;;21.25;18.25;;;;;4.82;64.10;102653.69;5030960;28;11594;-70
2022/03/01 02:29:34;;;;;;;;;20.50;17.75;;;;;4.80;64.50;102642.19;5031899;28;12218;-70
2022/03/01 02:32:07;;;;;;;;;17.50;15.75;;;;;4.76;64.17;102643.38;5024508;28;12237;-70
2022/03/01 02:34:35;;;;;;;;;19.00;15.25;;;;;4.78;64.07;102657.53;5024224;28;11544;-71
2022/03/01 02:37:02;;;;;;;;;21.50;19.50;;;;;4.77;64.25;102645.09;5028246;28;11576;-71
2022/03/01 02:39:29;;;;;;;;;17.75;16.50;;;;;4.75;64.06;102644.34;5017508;28;12384;-70
2022/03/01 02:41:55;;;;;;;;;28.75;22.25;;;;;4.75;64.13;102647.03;5027971;28;11557;-70
2022/03/01 02:44:22;;;;;;;;;25.25;23.50;;;;;4.71;63.73;102645.53;4997867;28;11507;-71
2022/03/01 02:46:48;;;;;;;;;25.25;19.75;;;;;4.71;64.25;102648.22;5031764;28;11539;-71
2022/03/01 02:49:15;;;;;;;;;30.00;22.25;;;;;4.74;64.36;102637.28;5014397;28;11572;-70
2022/03/01 02:51:41;;;;;;;;;28.25;22.00;;;;;4.71;64.22;102631.22;4986672;28;11531;-71
2022/03/01 02:54:08;;;;;;;;;26.75;22.75;;;;;4.71;63.89;102637.47;5011127;28;12209;-71
2022/03/01 02:56:39;;;;;;;;;20.50;19.00;;;;;4.73;63.67;102632.00;5010663;28;12331;-70
2022/03/01 02:59:06;;;;;;;;;27.75;22.50;;;;;4.72;63.71;102624.94;5031394;28;11539;-71
2022/03/01 03:01:33;;;;;;;;;27.00;21.00;;;;;4.77;63.63;102622.78;5015501;28;11615;-71
2022/03/01 03:04:01;;;;;;;;;29.75;22.75;;;;;4.80;63.71;102627.94;5011830;28;11563;-71
2022/03/01 03:06:27;;;;;;;;;33.00;29.50;;;;;4.75;63.20;102630.06;4995879;28;11589;-71
2022/03/01 03:08:54;;;;;;;;;21.75;20.75;;;;;4.78;62.96;102622.66;5028388;28;11637;-71
2022/03/01 03:11:20;;;;;;;;;9.00;8.50;;;;;4.80;62.70;102615.38;5011977;28;12323;-71
2022/03/01 03:13:47;;;;;;;;;30.25;27.50;;;;;4.77;62.74;102615.59;5011261;28;11587;-71
2022/03/01 03:16:13;;;;;;;;;26.50;23.75;;;;;4.77;62.62;102623.63;5024714;28;11661;-71
2022/03/01 03:18:40;;;;;;;;;27.25;22.50;;;;;4.79;62.51;102632.44;5013309;28;11511;-71
2022/03/01 03:21:06;;;;;;;;;28.00;26.75;;;;;4.78;62.50;102629.84;5018900;28;11698;-72
2022/03/01 03:23:34;;;;;;;;;26.25;22.50;;;;;4.79;62.67;102628.88;4996818;28;11603;-71
2022/03/01 03:26:00;;;;;;;;;19.00;17.75;;;;;4.83;63.21;102633.06;5008979;28;11535;-71
2022/03/01 03:28:27;;;;;;;;;20.25;20.25;;;;;4.75;62.77;102622.88;5029635;28;11524;-71
2022/03/01 03:30:54;;;;;;;;;25.75;20.25;;;;;4.77;63.10;102629.00;5002933;28;11609;-72
2022/03/01 03:33:21;;;;;;;;;23.75;18.00;;;;;4.78;63.31;102629.84;4993920;28;11587;-71
2022/03/01 03:35:49;;;;;;;;;24.75;22.75;;;;;4.73;63.41;102632.88;5020629;28;11632;-71
2022/03/01 03:38:16;;;;;;;;;28.00;27.50;;;;;4.77;63.30;102639.72;5009783;28;11566;-71
2022/03/01 03:40:42;;;;;;;;;25.50;23.00;;;;;4.78;62.82;102635.22;5013080;28;11632;-69
2022/03/01 03:43:09;;;;;;;;;26.00;23.75;;;;;4.79;62.75;102635.13;5025308;28;11616;-71
2022/03/01 03:45:35;;;;;;;;;22.00;21.50;;;;;4.78;62.62;102635.22;5026406;28;11634;-71
2022/03/01 03:48:02;;;;;;;;;25.75;22.75;;;;;4.86;62.40;102639.06;5029846;28;12185;-71
2022/03/01 03:50:29;;;;;;;;;16.25;15.75;;;;;4.88;62.46;102637.13;5018754;28;11550;-71
2022/03/01 03:52:57;;;;;;;;;23.00;19.50;;;;;4.88;62.76;102634.47;5027627;28;12352;-71
2022/03/01 03:55:24;;;;;;;;;20.50;18.50;;;;;4.89;62.38;102632.63;5029304;28;11529;-70
2022/03/01 03:57:50;;;;;;;;;21.75;18.75;;;;;4.91;62.02;102630.69;4993107;28;11561;-71
2022/03/01 04:00:18;;;;;;;;;16.50;14.25;;;;;4.95;61.48;102619.63;5024437;28;11587;-70
2022/03/01 04:02:51;;;;;;;;;22.00;20.50;;;;;4.91;61.78;102611.91;5030555;28;11531;-72
2022/03/01 04:05:18;;;;;;;;;25.75;22.50;;;;;4.93;61.59;102623.38;4997029;28;11665;-71
2022/03/01 04:07:47;;;;;;;;;27.00;20.00;;;;;4.95;61.66;102638.41;5030605;28;12464;-71
2022/03/01 04:10:14;;;;;;;;;23.75;21.00;;;;;4.95;61.90;102626.81;5028933;28;11534;-71
2022/03/01 04:12:41;;;;;;;;;14.25;12.00;;;;;4.98;61.86;102625.78;5027649;28;12242;-70
2022/03/01 04:15:09;;;;;;;;;27.25;18.50;;;;;5.01;61.69;102623.72;5008983;28;11559;-70
2022/03/01 04:17:35;;;;;;;;;19.25;16.75;;;;;5.05;61.32;102630.59;4997698;28;11995;-70
2022/03/01 04:20:03;;;;;;;;;19.25;17.50;;;;;5.05;61.25;102630.59;5011430;28;11529;-71
2022/03/01 04:22:30;;;;;;;;;18.00;15.25;;;;;5.06;61.22;102616.19;5012864;28;11544;-71
2022/03/01 04:24:57;;;;;;;;;24.50;18.50;;;;;5.11;60.30;102623.91;5029323;28;11534;-71
2022/03/01 04:27:24;;;;;;;;;19.50;14.50;;;;;5.12;59.99;102622.94;5027127;28;11646;-70
2022/03/01 04:29:51;;;;;;;;;17.25;15.00;;;;;5.14;59.91;102624.56;5027515;28;11573;-70
2022/03/01 04:32:17;;;;;;;;;21.25;13.75;;;;;5.10;59.58;102617.69;4994517;28;12339;-71
2022/03/01 04:34:44;;;;;;;;;20.75;17.50;;;;;5.14;59.62;102611.13;5008710;28;12388;-71
2022/03/01 04:37:10;;;;;;;;;20.75;19.50;;;;;5.17;59.66;102610.91;5029813;28;11554;-71
2022/03/01 04:39:37;;;;;;;;;17.00;14.25;;;;;5.21;59.90;102608.88;5014557;28;11512;-71
2022/03/01 04:42:04;;;;;;;;;18.25;15.50;;;;;5.23;59.80;102613.16;5033947;28;11523;-71
2022/03/01 04:44:35;;;;;;;;;28.50;20.50;;;;;5.21;59.45;102600.84;5029325;28;11510;-71
2022/03/01 04:47:03;;;;;;;;;23.25;18.00;;;;;5.22;59.03;102591.81;5034103;28;11536;-71
2022/03/01 04:49:30;;;;;;;;;19.50;15.75;;;;;5.23;59.00;102598.88;5000542;28;11629;-71
2022/03/01 04:51:56;;;;;;;;;19.50;18.25;;;;;5.24;59.44;102597.91;5021194;28;11524;-70
2022/03/01 04:54:23;;;;;;;;;19.75;16.25;;;;;5.22;59.32;102589.97;5015389;28;11683;-71
2022/03/01 04:56:50;;;;;;;;;12.75;9.50;;;;;5.21;59.76;102590.09;5033813;28;11537;-71
2022/03/01 04:59:18;;;;;;;;;26.00;23.00;;;;;5.12;58.98;102601.47;5029476;28;11557;-71
2022/03/01 05:01:44;;;;;;;;;25.00;22.00;;;;;5.19;59.51;102600.91;5028342;28;12392;-71
2022/03/01 05:04:11;;;;;;;;;21.75;17.00;;;;;5.18;58.99;102603.72;5012227;28;11688;-72
2022/03/01 05:06:38;;;;;;;;;17.75;13.00;;;;;5.15;59.39;102601.25;5020787;28;11556;-71
2022/03/01 05:09:05;;;;;;;;;18.00;16.25;;;;;5.13;59.28;102603.19;5028128;28;11519;-71
2022/03/01 05:11:32;;;;;;;;;22.75;17.50;;;;;5.15;59.18;102593.19;5026412;28;12223;-70
2022/03/01 05:14:00;;;;;;;;;20.25;19.00;;;;;5.14;58.93;102594.16;5024585;28;11551;-70
2022/03/01 05:16:26;;;;;;;;;13.00;13.00;;;;;5.12;59.33;102601.47;5013794;28;11537;-71
2022/03/01 05:18:53;;;;;;;;;27.50;21.00;;;;;5.10;59.24;102596.22;4996195;28;12228;-69
2022/03/01 05:21:20;;;;;;;;;29.00;22.25;;;;;5.07;59.31;102604.50;5014369;28;11619;-71
2022/03/01 05:23:46;;;;;;;;;16.00;13.50;;;;;5.07;59.53;102604.50;5032620;28;11593;-71
2022/03/01 05:26:14;;;;;;;;;15.75;13.50;;;;;5.08;59.58;102606.22;5014646;28;11587;-70
2022/03/01 05:28:40;;;;;;;;;16.25;15.00;;;;;5.05;60.19;102601.06;5030423;28;11545;-70
2022/03/01 05:31:06;;;;;;;;;12.00;11.50;;;;;5.06;60.37;102601.91;5030151;28;11528;-70
2022/03/01 05:33:33;;;;;;;;;14.75;14.75;;;;;5.02;60.13;102603.97;5030307;28;11513;-71
2022/03/01 05:36:00;;;;;;;;;22.25;18.00;;;;;5.04;60.47;102602.03;5039099;28;11541;-68
2022/03/01 05:38:26;;;;;;;;;25.25;20.25;;;;;5.04;60.57;102596.66;5027706;28;11546;-71
2022/03/01 05:40:54;;;;;;;;;23.25;15.50;;;;;4.95;60.65;102591.94;5010734;28;11541;-71
2022/03/01 05:43:20;;;;;;;;;25.50;14.50;;;;;5.02;61.18;102598.59;5032817;28;11603;-70
2022/03/01 05:45:47;;;;;;;;;13.00;10.25;;;;;4.99;61.01;102597.97;5025531;28;11578;-71
2022/03/01 05:48:13;;;;;;;;;20.50;19.75;;;;;4.98;61.15;102599.78;5028800;28;11658;-72
2022/03/01 05:50:40;;;;;;;;;16.00;15.00;;;;;4.98;61.05;102593.56;5013816;28;11558;-72
2022/03/01 05:53:06;;;;;;;;;14.75;14.50;;;;;4.97;60.98;102595.41;5005921;28;11571;-70
2022/03/01 05:55:33;;;;;;;;;19.75;17.50;;;;;5.00;61.28;102594.31;5000361;28;11622;-71
2022/03/01 05:58:00;;;;;;;;;21.00;14.00;;;;;4.98;61.28;102593.56;5032140;28;11581;-71
2022/03/01 06:00:26;;;;;;;;;16.00;16.00;;;;;4.99;61.78;102597.97;5001977;28;11575;-71
2022/03/01 06:02:53;;;;;;;;;18.00;17.75;;;;;5.05;61.42;102586.78;5013737;28;11546;-71
2022/03/01 06:05:26;;;;;;;;;18.75;18.25;;;;;5.05;61.50;102589.47;5013629;28;11539;-70
2022/03/01 06:07:52;;;;;;;;;18.50;17.00;;;;;4.99;62.01;102590.78;5011665;28;11601;-71
2022/03/01 06:10:19;;;;;;;;;21.50;17.75;;;;;4.99;62.34;102600.66;5011557;28;11683;-71
2022/03/01 06:12:45;;;;;;;;;20.00;17.50;;;;;5.01;62.16;102606.75;5028082;28;11526;-71
2022/03/01 06:15:12;;;;;;;;;22.25;20.25;;;;;5.00;62.51;102602.38;5029450;28;11587;-71
2022/03/01 06:17:39;;;;;;;;;29.75;23.50;;;;;4.97;62.31;102605.28;5011439;28;13811;-71
2022/03/01 06:20:09;;;;;;;;;17.50;15.25;;;;;5.00;62.72;102610.41;5029807;28;11562;-71
2022/03/01 06:22:36;;;;;;;;;24.25;21.00;;;;;5.00;62.82;102615.78;5032357;28;11662;-70
2022/03/01 06:25:03;;;;;;;;;13.25;13.25;;;;;5.00;62.89;102613.97;4995800;28;11553;-71
2022/03/01 06:27:30;;;;;;;;;20.75;19.50;;;;;5.01;62.96;102621.03;5031677;28;12230;-71
2022/03/01 06:29:56;;;;;;;;;15.25;13.00;;;;;5.03;63.06;102624.47;5013441;28;11678;-71
2022/03/01 06:32:23;;;;;;;;;15.00;14.50;;;;;5.03;63.29;102621.78;5015554;28;11532;-71
2022/03/01 06:34:50;;;;;;;;;18.25;16.75;;;;;5.05;63.41;102627.91;5029494;28;11633;-69
2022/03/01 06:37:35;;;;;;;;;22.75;16.75;;;;;4.99;63.01;102643.59;5009983;28;11511;-73
2022/03/01 06:40:06;;;;;;;;;20.00;18.00;;;;;5.02;62.67;102641.56;5005155;28;11690;-71
2022/03/01 06:42:33;;;;;;;;;18.00;15.50;;;;;5.02;63.01;102636.19;4987861;28;11632;-71
2022/03/01 06:44:59;;;;;;;;;21.25;18.00;;;;;5.05;62.59;102640.47;5015642;28;11864;-71
2022/03/01 06:47:26;;;;;;;;;20.50;18.25;;;;;5.05;62.86;102648.53;5026127;28;11668;-71
2022/03/01 06:49:52;;;;;;;;;20.50;17.00;;;;;5.07;62.45;102657.31;5026785;28;11550;-71
2022/03/01 06:52:19;;;;;;;;;22.75;22.75;;;;;5.05;61.31;102659.25;5014781;28;11684;-72
2022/03/01 06:54:46;;;;;;;;;22.00;15.25;;;;;5.10;62.12;102641.84;5012251;28;11593;-71
2022/03/01 06:57:16;;;;;;;;;29.00;20.50;;;;;5.16;62.24;102651.28;5012768;28;12299;-72
2022/03/01 06:59:42;;;;;;;;;17.50;17.50;;;;;5.15;62.18;102654.94;5023291;28;11611;-70
2022/03/01 07:02:09;;;;;;;;;20.75;16.50;;;;;5.14;61.78;102666.66;5015309;28;11569;-70
2022/03/01 07:04:35;;;;;;;;;26.75;25.75;;;;;5.13;61.22;102670.31;5028503;28;11516;-69
2022/03/01 07:07:02;;;;;;;;;18.50;17.50;;;;;5.06;61.30;102663.66;5012878;28;11630;-69
2022/03/01 07:09:29;;;;;;;;;29.50;23.75;;;;;5.10;61.65;102666.00;5004602;28;11541;-70
2022/03/01 07:11:56;;;;;;;;;17.00;17.00;;;;;5.09;61.45;102666.13;5022129;28;11556;-70
2022/03/01 07:14:23;;;;;;;;;25.50;20.00;;;;;5.09;61.76;102669.66;5027156;28;11708;-70
2022/03/01 07:16:49;;;;;;;;;14.00;14.00;;;;;5.29;62.22;102662.03;5021861;28;11658;-70
2022/03/01 07:19:16;;;;;;;;;13.25;12.50;;;;;5.35;62.37;102675.88;5030201;28;12324;-69
2022/03/01 07:21:43;;;;;;;;;18.00;17.25;;;;;5.28;61.75;102668.38;5005058;28;11624;-70
2022/03/01 07:24:09;;;;;;;;;16.00;13.00;;;;;5.20;61.55;102672.47;5011027;28;12236;-69
2022/03/01 07:26:36;;;;;;;;;18.25;15.75;;;;;5.19;61.90;102667.19;5001241;28;11542;-70
2022/03/01 07:29:03;;;;;;;;;27.50;19.25;;;;;5.17;61.05;102674.47;5021468;28;11692;-69
2022/03/01 07:31:30;;;;;;;;;26.75;21.25;;;;;5.18;61.36;102673.50;5008577;28;11656;-70
2022/03/01 07:33:56;;;;;;;;;17.00;16.00;;;;;5.20;61.44;102669.78;5028992;28;11521;-70
2022/03/01 07:36:24;;;;;;;;;23.00;20.25;;;;;5.21;61.37;102679.56;5013000;28;11525;-69
2022/03/01 07:38:51;;;;;;;;;19.00;18.00;;;;;5.18;61.16;102677.06;4998963;28;11542;-71
2022/03/01 07:41:18;;;;;;;;;20.25;19.00;;;;;5.18;61.02;102676.19;4998748;28;11540;-70
2022/03/01 07:43:46;;;;;;;;;24.25;21.00;;;;;5.28;61.38;102677.28;5015230;28;11553;-69
2022/03/01 07:46:13;;;;;;;;;20.25;20.25;;;;;5.19;60.02;102686.81;5022210;28;11528;-69
2022/03/01 07:48:41;;;;;;;;;23.00;22.00;;;;;5.20;60.22;102685.88;5026663;28;11573;-70
2022/03/01 07:51:08;;;;;;;;;20.50;18.50;;;;;5.20;60.29;102695.75;5025107;28;11630;-71
2022/03/01 07:53:35;;;;;;;;;21.00;19.00;;;;;5.21;60.36;102703.72;5024395;28;11545;-69
2022/03/01 07:56:02;;;;;;;;;21.25;17.00;;;;;5.27;60.85;102704.25;5000958;28;11685;-70
2022/03/01 07:58:29;;;;;;;;;17.75;16.50;;;;;5.24;59.97;102699.94;5012504;28;11607;-69
2022/03/01 08:00:55;;;;;;;;;24.50;15.50;;;;;5.27;59.84;102701.56;5015060;28;11529;-68
2022/03/01 08:03:22;;;;;;;;;25.25;21.25;;;;;5.28;60.86;102706.81;5016846;28;11539;-71
2022/03/01 08:05:51;;;;;;;;;16.25;16.25;;;;;5.27;60.71;102714.97;5015651;28;11511;-69
2022/03/01 08:08:17;;;;;;;;;20.00;18.00;;;;;5.28;61.21;102708.66;5013343;28;11710;-68
2022/03/01 08:10:44;;;;;;;;;16.00;11.50;;;;;5.30;60.74;102706.72;4998270;28;11641;-70
2022/03/01 08:13:32;;;;;;;;;24.25;18.00;;;;;5.31;60.21;102708.44;5014805;28;11524;-70
2022/03/01 08:15:58;;;;;;;;;22.25;19.25;;;;;5.31;60.11;102701.22;4996279;28;12282;-71
2022/03/01 08:18:25;;;;;;;;;22.00;16.25;;;;;5.36;59.89;102703.56;4997880;28;12288;-70
2022/03/01 08:20:55;;;;;;;;;14.75;13.75;;;;;5.38;60.00;102707.00;5011872;28;11560;-70
2022/03/01 08:23:21;;;;;;;;;18.00;15.25;;;;;5.43;60.11;102703.03;5015643;28;11553;-69
2022/03/01 08:25:48;;;;;;;;;12.75;12.00;;;;;5.46;60.06;102700.16;4998790;28;11717;-71
2022/03/01 08:28:14;;;;;;;;;17.25;17.25;;;;;5.51;60.48;102702.50;4998752;28;11637;-69
2022/03/01 08:30:41;;;;;;;;;19.75;15.50;;;;;5.50;59.93;102704.31;5002593;28;12666;-70
2022/03/01 08:33:08;;;;;;;;;17.75;16.00;;;;;5.56;60.05;102703.00;5023477;28;11579;-69
2022/03/01 08:35:37;;;;;;;;;26.75;19.75;;;;;5.44;59.28;102695.81;5009522;28;11632;-69
2022/03/01 08:38:05;;;;;;;;;18.50;18.50;;;;;5.48;60.38;102694.66;5004098;28;11595;-69
2022/03/01 08:40:34;;;;;;;;;23.25;17.50;;;;;5.54;61.18;102705.81;5023783;28;11616;-69
2022/03/01 08:43:00;;;;;;;;;21.75;12.25;;;;;5.62;61.80;102712.44;5024415;28;11731;-69
2022/03/01 08:45:27;;;;;;;;;15.75;13.50;;;;;5.64;62.04;102715.88;5023135;28;11521;-68
2022/03/01 08:47:53;;;;;;;;;20.00;19.25;;;;;5.63;62.03;102719.53;5026555;28;11580;-69
2022/03/01 08:50:20;;;;;;;;;19.50;13.25;;;;;5.61;62.22;102721.47;5006428;28;11549;-69
2022/03/01 08:53:07;;;;;;;;;16.00;15.00;;;;;5.61;61.54;102725.03;5024467;28;11511;-70
2022/03/01 08:55:34;;;;;;;;;20.25;16.50;;;;;5.59;60.88;102726.09;4993545;28;11551;-69
2022/03/01 08:58:01;;;;;;;;;22.00;18.00;;;;;5.61;60.84;102722.34;5026084;28;11651;-69
2022/03/01 09:00:28;;;;;;;;;18.75;16.50;;;;;5.57;60.28;102720.84;4999382;28;11702;-70
2022/03/01 09:02:56;;;;;;;;;23.00;19.00;;;;;5.58;60.24;102719.88;5011167;28;11524;-69
2022/03/01 09:05:23;;;;;;;;;18.50;14.75;;;;;5.64;60.20;102729.31;5013497;28;11644;-69
2022/03/01 09:07:50;;;;;;;;;23.75;19.00;;;;;5.68;60.09;102733.50;5012495;28;11816;-70
2022/03/01 09:10:21;;;;;;;;;10.75;9.00;;;;;5.71;60.29;102733.31;4998853;28;11607;-69
2022/03/01 09:12:50;;;;;;;;;20.75;17.25;;;;;5.72;60.61;102733.19;5015296;28;11398;-69
2022/03/01 09:15:17;;;;;;;;;17.75;17.75;;;;;5.74;60.21;102727.69;4998507;28;11625;-69
2022/03/01 09:17:44;;;;;;;;;7.00;7.00;;;;;5.74;59.75;102730.38;4998861;28;11662;-69
2022/03/01 09:20:12;;;;;;;;;16.00;14.00;;;;;5.77;59.83;102741.78;5011117;28;11470;-68
2022/03/01 09:22:39;;;;;;;;;23.00;18.00;;;;;5.81;61.83;102745.94;4993192;28;11616;-69
2022/03/01 09:25:06;;;;;;;;;19.25;18.50;;;;;5.81;62.49;102737.03;5003248;28;11629;-70
2022/03/01 09:27:33;;;;;;;;;23.25;19.50;;;;;5.79;62.04;102734.47;5003463;28;11708;-69
2022/03/01 09:29:59;;;;;;;;;21.00;19.75;;;;;5.83;62.75;102741.31;5014158;28;12328;-70
2022/03/01 09:32:26;;;;;;;;;24.25;19.50;;;;;5.85;62.94;102739.38;5004261;28;11534;-68
2022/03/01 09:34:55;;;;;;;;;26.25;23.00;;;;;5.81;62.29;102743.25;5001329;28;11549;-68
2022/03/01 09:37:22;;;;;;;;;25.25;23.50;;;;;5.81;61.54;102742.41;5021342;28;11672;-69
2022/03/01 09:39:49;;;;;;;;;21.00;21.00;;;;;5.83;62.16;102738.63;5028054;28;11567;-68
2022/03/01 09:42:17;;;;;;;;;24.50;20.25;;;;;5.79;61.35;102736.28;5028069;28;11598;-69
2022/03/01 09:44:44;;;;;;;;;27.00;21.25;;;;;5.76;60.98;102736.50;5027935;28;11594;-69
2022/03/01 09:47:11;;;;;;;;;25.75;22.25;;;;;5.91;61.32;102738.09;5026773;28;12465;-70
2022/03/01 09:49:37;;;;;;;;;19.50;19.50;;;;;5.94;60.88;102750.44;5031168;28;11558;-70
2022/03/01 09:52:11;;;;;;;;;24.00;22.75;;;;;6.01;61.52;102752.59;5026781;28;11614;-70
2022/03/01 09:54:38;;;;;;;;;20.75;15.00;;;;;6.03;61.20;102747.97;5005315;28;11551;-70
2022/03/01 09:57:05;;;;;;;;;22.25;19.75;;;;;6.00;60.01;102756.25;5019960;28;11632;-70
2022/03/01 09:59:32;;;;;;;;;22.75;19.25;;;;;6.04;60.39;102757.75;5026546;28;12269;-70
2022/03/01 10:01:58;;;;;;;;;19.50;16.25;;;;;6.12;60.46;102751.81;5008610;28;11555;-71
2022/03/01 10:04:25;;;;;;;;;29.00;20.50;;;;;6.16;60.48;102753.28;5034348;28;11536;-69
2022/03/01 10:06:52;;;;;;;;;25.50;18.50;;;;;6.16;60.77;102756.84;5029957;28;11579;-70
2022/03/01 10:09:23;;;;;;;;;15.75;15.25;;;;;6.20;61.20;102765.56;5029770;28;11535;-70
2022/03/01 10:11:51;;;;;;;;;24.75;21.00;;;;;6.17;60.79;102766.63;5027850;28;11679;-70
2022/03/01 10:14:29;;;;;;;;;23.75;19.25;;;;;6.20;60.70;102765.56;5012604;28;11615;-70
2022/03/01 10:16:56;;;;;;;;;22.00;20.00;;;;;6.26;61.59;102762.41;5011820;28;11540;-69
2022/03/01 10:19:24;;;;;;;;;19.25;15.25;;;;;6.26;61.03;102761.56;5029214;28;11658;-69
2022/03/01 10:21:59;;;;;;;;;23.25;22.50;;;;;6.21;59.23;102769.09;5029392;28;11508;-70
2022/03/01 10:24:27;;;;;;;;;15.50;13.75;;;;;6.26;60.40;102758.88;5030051;28;11533;-71
2022/03/01 10:27:01;;;;;;;;;21.00;18.00;;;;;6.26;61.36;102762.41;4989897;28;11574;-71
2022/03/01 10:29:47;;;;;;;;;22.50;21.00;;;;;6.27;61.92;102761.44;5026245;28;11646;-70
2022/03/01 10:32:14;;;;;;;;;25.00;23.50;;;;;6.25;60.88;102754.47;5010731;28;11538;-70
2022/03/01 10:35:03;;;;;;;;;16.50;16.50;;;;;6.33;63.70;102754.72;4993501;28;11529;-71
2022/03/01 10:37:33;;;;;;;;;14.75;14.75;;;;;6.32;64.44;102761.94;5028917;28;11642;-69
2022/03/01 10:40:17;;;;;;;;;20.75;20.25;;;;;6.29;65.42;102751.41;5010807;28;11679;-71
2022/03/01 10:42:57;;;;;;;;;18.75;17.00;;;;;6.27;67.12;102748.00;5025674;28;11631;-70
2022/03/01 10:45:31;;;;;;;;;26.50;20.75;;;;;6.21;66.85;102750.28;5005508;28;11527;-69
2022/03/01 10:47:57;;;;;;;;;27.25;22.25;;;;;6.21;68.33;102751.13;5029813;28;11536;-69
2022/03/01 10:50:24;;;;;;;;;29.25;21.00;;;;;6.22;69.38;102750.16;5023849;28;11550;-70
2022/03/01 10:52:50;;;;;;;;;27.50;23.25;;;;;6.25;70.47;102752.63;5023620;28;12796;-71
2022/03/01 10:55:25;;;;;;;;;25.50;23.75;;;;;6.26;71.04;102753.47;5019841;28;12363;-70
2022/03/01 10:58:08;;;;;;;;;26.00;22.50;;;;;6.23;71.02;102751.03;5020051;28;11690;-71
2022/03/01 11:00:35;;;;;;;;;20.25;18.00;;;;;6.23;71.27;102753.72;5012805;28;11648;-70
2022/03/01 11:03:04;;;;;;;;;19.50;18.50;;;;;6.33;73.42;102754.72;5017723;28;11588;-70
2022/03/01 11:05:32;;;;;;;;;23.00;22.75;;;;;6.29;72.44;102753.25;5024044;28;11503;-70
2022/03/01 11:08:21;;;;;;;;;24.00;22.50;;;;;6.20;70.73;102749.44;5026326;28;11687;-71
2022/03/01 11:10:51;;;;;;;;;24.75;23.50;;;;;6.17;70.06;102741.56;5023213;28;12375;-70
2022/03/01 11:13:25;;;;;;;;;26.00;20.75;;;;;6.24;71.71;102736.59;5004174;28;11572;-71
2022/03/01 11:16:13;;;;;;;;;23.50;18.25;;;;;6.22;70.67;102744.78;5012363;28;11541;-70
2022/03/01 11:19:00;;;;;;;;;25.25;19.75;;;;;6.23;70.71;102743.81;5011876;28;11622;-71
2022/03/01 11:21:28;;;;;;;;;19.75;18.00;;;;;6.26;71.52;102748.09;5013060;28;11619;-70